sensor_id;sensor_type;location;lat;lon;timestamp;temperature;humidity
60860;DHT22;46694;54.382;9.708;2023-01-28T00:02:34;0.60;99.90
60860;DHT22;46694;54.382;9.708;2023-01-28T00:05:14;0.60;99.90
60860;DHT22;46694;54.382;9.708;2023-01-28T00:07:54;0.60;99.90
60860;DHT22;46694;54.382;9.708;2023-01-28T00:10:36;0.50;99.90
60860;DHT22;46694;54.382;9.708;2023-01-28T00:13:17;0.50;99.90
60860;DHT22;46694;54.382;9.708;2023-01-28T00:15:59;0.40;99.90
60860;DHT22;46694;54.382;9.708;2023-01-28T00:18:40;0.40;99.90
60860;DHT22;46694;54.382;9.708;2023-01-28T00:21:20;0.40;99.90
60860;DHT22;46694;54.382;9.708;2023-01-28T00:23:59;0.40;99.90
60860;DHT22;46694;54.382;9.708;2023-01-28T00:26:39;0.30;99.90
60860;DHT22;46694;54.382;9.708;2023-01-28T00:29:19;0.20;99.90
60860;DHT22;46694;54.382;9.708;2023-01-28T00:31:58;0.20;99.90
60860;DHT22;46694;54.382;9.708;2023-01-28T00:34:38;0.10;99.90
60860;DHT22;46694;54.382;9.708;2023-01-28T00:37:17;0.10;99.90
60860;DHT22;46694;54.382;9.708;2023-01-28T00:39:57;0.00;99.90
60860;DHT22;46694;54.382;9.708;2023-01-28T00:42:36;0.00;99.90
60860;DHT22;46694;54.382;9.708;2023-01-28T00:45:16;0.00;99.90
60860;DHT22;46694;54.382;9.708;2023-01-28T00:47:56;0.00;99.90
60860;DHT22;46694;54.382;9.708;2023-01-28T00:50:36;-0.10;99.90
60860;DHT22;46694;54.382;9.708;2023-01-28T00:53:17;-0.10;99.90
60860;DHT22;46694;54.382;9.708;2023-01-28T00:55:57;-0.20;99.90
60860;DHT22;46694;54.382;9.708;2023-01-28T00:58:36;-0.20;99.90
60860;DHT22;46694;54.382;9.708;2023-01-28T01:01:19;-0.20;99.90
60860;DHT22;46694;54.382;9.708;2023-01-28T01:04:03;-0.30;99.90
60860;DHT22;46694;54.382;9.708;2023-01-28T01:06:42;-0.20;99.90
60860;DHT22;46694;54.382;9.708;2023-01-28T01:09:22;-0.30;99.90
60860;DHT22;46694;54.382;9.708;2023-01-28T01:12:02;-0.30;99.90
60860;DHT22;46694;54.382;9.708;2023-01-28T01:14:41;-0.30;99.90
60860;DHT22;46694;54.382;9.708;2023-01-28T01:17:21;-0.30;99.90
60860;DHT22;46694;54.382;9.708;2023-01-28T01:20:00;-0.30;99.90
60860;DHT22;46694;54.382;9.708;2023-01-28T01:22:40;-0.40;99.90
60860;DHT22;46694;54.382;9.708;2023-01-28T01:25:20;-0.40;99.90
60860;DHT22;46694;54.382;9.708;2023-01-28T01:27:59;-0.50;99.90
60860;DHT22;46694;54.382;9.708;2023-01-28T01:30:39;-0.50;99.90
60860;DHT22;46694;54.382;9.708;2023-01-28T01:33:19;-0.50;99.90
60860;DHT22;46694;54.382;9.708;2023-01-28T01:35:58;-0.50;99.90
60860;DHT22;46694;54.382;9.708;2023-01-28T01:38:39;-0.50;99.90
60860;DHT22;46694;54.382;9.708;2023-01-28T01:41:28;-0.60;99.90
60860;DHT22;46694;54.382;9.708;2023-01-28T01:50:51;-0.60;99.90
60860;DHT22;46694;54.382;9.708;2023-01-28T01:53:36;-0.60;99.90
60860;DHT22;46694;54.382;9.708;2023-01-28T01:56:23;-0.60;99.90
60860;DHT22;46694;54.382;9.708;2023-01-28T01:59:10;-0.60;99.90
60860;DHT22;46694;54.382;9.708;2023-01-28T02:01:51;-0.60;99.90
60860;DHT22;46694;54.382;9.708;2023-01-28T02:04:35;-0.60;99.90
60860;DHT22;46694;54.382;9.708;2023-01-28T02:07:18;-0.60;99.90
60860;DHT22;46694;54.382;9.708;2023-01-28T02:09:57;-0.60;99.90
60860;DHT22;46694;54.382;9.708;2023-01-28T02:12:44;-0.60;99.90
60860;DHT22;46694;54.382;9.708;2023-01-28T02:15:26;-0.70;99.90
60860;DHT22;46694;54.382;9.708;2023-01-28T02:18:07;-0.70;99.90
60860;DHT22;46694;54.382;9.708;2023-01-28T02:27:21;-0.70;99.90
60860;DHT22;46694;54.382;9.708;2023-01-28T02:30:27;-0.80;99.90
60860;DHT22;46694;54.382;9.708;2023-01-28T02:36:45;-0.80;99.90
60860;DHT22;46694;54.382;9.708;2023-01-28T02:39:39;-0.90;99.90
60860;DHT22;46694;54.382;9.708;2023-01-28T02:42:31;-0.90;99.90
60860;DHT22;46694;54.382;9.708;2023-01-28T02:45:24;-0.90;99.90
60860;DHT22;46694;54.382;9.708;2023-01-28T02:48:28;-0.90;99.90
60860;DHT22;46694;54.382;9.708;2023-01-28T02:51:38;-0.90;99.90
60860;DHT22;46694;54.382;9.708;2023-01-28T02:54:29;-0.90;99.90
60860;DHT22;46694;54.382;9.708;2023-01-28T03:06:30;-1.00;99.90
60860;DHT22;46694;54.382;9.708;2023-01-28T03:09:18;-1.00;99.90
60860;DHT22;46694;54.382;9.708;2023-01-28T03:12:05;-1.10;99.90
60860;DHT22;46694;54.382;9.708;2023-01-28T03:15:12;-1.00;99.90
60860;DHT22;46694;54.382;9.708;2023-01-28T03:18:20;-1.10;99.90
60860;DHT22;46694;54.382;9.708;2023-01-28T03:21:36;-1.10;99.90
60860;DHT22;46694;54.382;9.708;2023-01-28T03:24:44;-1.10;99.90
60860;DHT22;46694;54.382;9.708;2023-01-28T03:27:54;-1.10;99.90
60860;DHT22;46694;54.382;9.708;2023-01-28T03:34:18;-1.10;99.90
60860;DHT22;46694;54.382;9.708;2023-01-28T03:37:18;-1.10;99.90
60860;DHT22;46694;54.382;9.708;2023-01-28T03:40:02;-1.10;99.90
60860;DHT22;46694;54.382;9.708;2023-01-28T03:42:45;-1.10;99.90
60860;DHT22;46694;54.382;9.708;2023-01-28T03:45:25;-1.10;99.90
60860;DHT22;46694;54.382;9.708;2023-01-28T03:48:04;-1.10;99.90
60860;DHT22;46694;54.382;9.708;2023-01-28T03:50:45;-1.10;99.90
60860;DHT22;46694;54.382;9.708;2023-01-28T03:53:24;-1.10;99.90
60860;DHT22;46694;54.382;9.708;2023-01-28T03:56:04;-1.10;99.90
60860;DHT22;46694;54.382;9.708;2023-01-28T03:58:44;-1.10;99.90
60860;DHT22;46694;54.382;9.708;2023-01-28T04:01:30;-1.10;99.90
60860;DHT22;46694;54.382;9.708;2023-01-28T04:04:10;-1.10;99.90
60860;DHT22;46694;54.382;9.708;2023-01-28T04:07:00;-1.20;99.90
60860;DHT22;46694;54.382;9.708;2023-01-28T04:09:40;-1.20;99.90
60860;DHT22;46694;54.382;9.708;2023-01-28T04:12:21;-1.20;99.90
60860;DHT22;46694;54.382;9.708;2023-01-28T04:15:01;-1.20;99.90
60860;DHT22;46694;54.382;9.708;2023-01-28T04:17:53;-1.20;99.90
60860;DHT22;46694;54.382;9.708;2023-01-28T04:20:32;-1.20;99.90
60860;DHT22;46694;54.382;9.708;2023-01-28T04:23:12;-1.20;99.90
60860;DHT22;46694;54.382;9.708;2023-01-28T04:25:52;-1.30;99.90
60860;DHT22;46694;54.382;9.708;2023-01-28T04:28:31;-1.20;99.90
60860;DHT22;46694;54.382;9.708;2023-01-28T04:31:11;-1.20;99.90
60860;DHT22;46694;54.382;9.708;2023-01-28T04:33:51;-1.10;99.90
60860;DHT22;46694;54.382;9.708;2023-01-28T04:36:30;-1.00;99.90
60860;DHT22;46694;54.382;9.708;2023-01-28T04:39:10;-1.00;99.90
60860;DHT22;46694;54.382;9.708;2023-01-28T04:41:49;-0.90;99.90
60860;DHT22;46694;54.382;9.708;2023-01-28T04:44:29;-0.90;99.90
60860;DHT22;46694;54.382;9.708;2023-01-28T04:47:08;-0.90;99.90
60860;DHT22;46694;54.382;9.708;2023-01-28T04:49:48;-0.80;99.90
60860;DHT22;46694;54.382;9.708;2023-01-28T04:52:27;-0.80;99.90
60860;DHT22;46694;54.382;9.708;2023-01-28T04:55:08;-0.80;99.90
60860;DHT22;46694;54.382;9.708;2023-01-28T04:57:47;-0.80;99.90
60860;DHT22;46694;54.382;9.708;2023-01-28T05:00:27;-0.70;99.90
60860;DHT22;46694;54.382;9.708;2023-01-28T05:03:07;-0.70;99.90
60860;DHT22;46694;54.382;9.708;2023-01-28T05:05:47;-0.70;99.90
60860;DHT22;46694;54.382;9.708;2023-01-28T05:08:26;-0.70;99.90
60860;DHT22;46694;54.382;9.708;2023-01-28T05:11:06;-0.70;99.90
60860;DHT22;46694;54.382;9.708;2023-01-28T05:13:45;-0.60;99.90
60860;DHT22;46694;54.382;9.708;2023-01-28T05:16:25;-0.60;99.90
60860;DHT22;46694;54.382;9.708;2023-01-28T05:19:04;-0.60;99.90
60860;DHT22;46694;54.382;9.708;2023-01-28T05:21:44;-0.60;99.90
60860;DHT22;46694;54.382;9.708;2023-01-28T05:24:23;-0.60;99.90
60860;DHT22;46694;54.382;9.708;2023-01-28T05:27:03;-0.60;99.90
60860;DHT22;46694;54.382;9.708;2023-01-28T05:29:43;-0.60;99.90
60860;DHT22;46694;54.382;9.708;2023-01-28T05:32:23;-0.60;99.90
60860;DHT22;46694;54.382;9.708;2023-01-28T05:35:02;-0.60;99.90
60860;DHT22;46694;54.382;9.708;2023-01-28T05:37:42;-0.60;99.90
60860;DHT22;46694;54.382;9.708;2023-01-28T05:40:22;-0.60;99.90
60860;DHT22;46694;54.382;9.708;2023-01-28T05:43:01;-0.60;99.90
60860;DHT22;46694;54.382;9.708;2023-01-28T05:45:41;-0.50;99.90
60860;DHT22;46694;54.382;9.708;2023-01-28T05:48:20;-0.50;99.90
60860;DHT22;46694;54.382;9.708;2023-01-28T05:51:00;-0.50;99.90
60860;DHT22;46694;54.382;9.708;2023-01-28T05:53:39;-0.50;99.90
60860;DHT22;46694;54.382;9.708;2023-01-28T05:56:19;-0.50;99.90
60860;DHT22;46694;54.382;9.708;2023-01-28T05:58:58;-0.40;99.90
60860;DHT22;46694;54.382;9.708;2023-01-28T06:01:38;-0.40;99.90
60860;DHT22;46694;54.382;9.708;2023-01-28T06:04:18;-0.40;99.90
60860;DHT22;46694;54.382;9.708;2023-01-28T06:06:58;-0.40;99.90
60860;DHT22;46694;54.382;9.708;2023-01-28T06:09:38;-0.40;99.90
60860;DHT22;46694;54.382;9.708;2023-01-28T06:12:17;-0.40;99.90
60860;DHT22;46694;54.382;9.708;2023-01-28T06:14:57;-0.50;99.90
60860;DHT22;46694;54.382;9.708;2023-01-28T06:17:37;-0.50;99.90
60860;DHT22;46694;54.382;9.708;2023-01-28T06:20:16;-0.50;99.90
60860;DHT22;46694;54.382;9.708;2023-01-28T06:22:56;-0.50;99.90
60860;DHT22;46694;54.382;9.708;2023-01-28T06:25:35;-0.50;99.90
60860;DHT22;46694;54.382;9.708;2023-01-28T06:28:15;-0.40;99.90
60860;DHT22;46694;54.382;9.708;2023-01-28T06:30:54;-0.40;99.90
60860;DHT22;46694;54.382;9.708;2023-01-28T06:33:34;-0.40;99.90
60860;DHT22;46694;54.382;9.708;2023-01-28T06:36:13;-0.40;99.90
60860;DHT22;46694;54.382;9.708;2023-01-28T06:38:53;-0.40;99.90
60860;DHT22;46694;54.382;9.708;2023-01-28T06:41:32;-0.40;99.90
60860;DHT22;46694;54.382;9.708;2023-01-28T06:44:12;-0.40;99.90
60860;DHT22;46694;54.382;9.708;2023-01-28T06:46:51;-0.40;99.90
60860;DHT22;46694;54.382;9.708;2023-01-28T06:49:31;-0.30;99.90
60860;DHT22;46694;54.382;9.708;2023-01-28T06:52:10;-0.30;99.90
60860;DHT22;46694;54.382;9.708;2023-01-28T06:54:50;-0.30;99.90
60860;DHT22;46694;54.382;9.708;2023-01-28T06:57:30;-0.20;99.90
60860;DHT22;46694;54.382;9.708;2023-01-28T07:00:10;-0.20;99.90
60860;DHT22;46694;54.382;9.708;2023-01-28T07:02:55;-0.20;99.90
60860;DHT22;46694;54.382;9.708;2023-01-28T07:05:37;-0.20;99.90
60860;DHT22;46694;54.382;9.708;2023-01-28T07:08:17;-0.20;99.90
60860;DHT22;46694;54.382;9.708;2023-01-28T07:10:56;-0.10;99.90
60860;DHT22;46694;54.382;9.708;2023-01-28T07:13:36;-0.10;99.90
60860;DHT22;46694;54.382;9.708;2023-01-28T07:16:16;-0.10;99.90
60860;DHT22;46694;54.382;9.708;2023-01-28T07:18:56;0.00;99.90
60860;DHT22;46694;54.382;9.708;2023-01-28T07:21:35;0.00;99.90
60860;DHT22;46694;54.382;9.708;2023-01-28T07:24:15;0.00;99.90
60860;DHT22;46694;54.382;9.708;2023-01-28T07:26:55;0.00;99.90
60860;DHT22;46694;54.382;9.708;2023-01-28T07:29:34;0.00;99.90
60860;DHT22;46694;54.382;9.708;2023-01-28T07:32:14;0.10;99.90
60860;DHT22;46694;54.382;9.708;2023-01-28T07:34:53;0.10;99.90
60860;DHT22;46694;54.382;9.708;2023-01-28T07:37:33;0.10;99.90
60860;DHT22;46694;54.382;9.708;2023-01-28T07:40:13;0.10;99.90
60860;DHT22;46694;54.382;9.708;2023-01-28T07:42:52;0.10;99.90
60860;DHT22;46694;54.382;9.708;2023-01-28T07:45:33;0.10;99.90
60860;DHT22;46694;54.382;9.708;2023-01-28T07:48:13;0.10;99.90
60860;DHT22;46694;54.382;9.708;2023-01-28T07:50:52;0.10;99.90
60860;DHT22;46694;54.382;9.708;2023-01-28T07:53:32;0.10;99.90
60860;DHT22;46694;54.382;9.708;2023-01-28T07:56:11;0.20;99.90
60860;DHT22;46694;54.382;9.708;2023-01-28T07:58:51;0.20;99.90
60860;DHT22;46694;54.382;9.708;2023-01-28T08:01:30;0.20;99.90
60860;DHT22;46694;54.382;9.708;2023-01-28T08:04:10;0.20;99.90
60860;DHT22;46694;54.382;9.708;2023-01-28T08:06:49;0.20;99.90
60860;DHT22;46694;54.382;9.708;2023-01-28T08:09:30;0.20;99.90
60860;DHT22;46694;54.382;9.708;2023-01-28T08:12:12;0.20;99.90
60860;DHT22;46694;54.382;9.708;2023-01-28T08:14:51;0.20;99.90
60860;DHT22;46694;54.382;9.708;2023-01-28T08:17:31;0.20;99.90
60860;DHT22;46694;54.382;9.708;2023-01-28T08:20:11;0.30;99.90
60860;DHT22;46694;54.382;9.708;2023-01-28T08:22:51;0.20;99.90
60860;DHT22;46694;54.382;9.708;2023-01-28T08:25:30;0.30;99.90
60860;DHT22;46694;54.382;9.708;2023-01-28T08:28:12;0.30;99.90
60860;DHT22;46694;54.382;9.708;2023-01-28T08:30:52;0.30;99.90
60860;DHT22;46694;54.382;9.708;2023-01-28T08:33:32;0.30;99.90
60860;DHT22;46694;54.382;9.708;2023-01-28T08:36:12;0.30;99.90
60860;DHT22;46694;54.382;9.708;2023-01-28T08:38:52;0.40;99.90
60860;DHT22;46694;54.382;9.708;2023-01-28T08:41:32;0.40;99.90
60860;DHT22;46694;54.382;9.708;2023-01-28T08:44:12;0.50;99.90
60860;DHT22;46694;54.382;9.708;2023-01-28T08:46:51;0.60;99.90
60860;DHT22;46694;54.382;9.708;2023-01-28T08:49:31;0.80;99.90
60860;DHT22;46694;54.382;9.708;2023-01-28T08:52:10;1.00;99.90
60860;DHT22;46694;54.382;9.708;2023-01-28T08:54:52;1.10;99.90
60860;DHT22;46694;54.382;9.708;2023-01-28T08:57:32;1.10;99.90
60860;DHT22;46694;54.382;9.708;2023-01-28T09:00:12;1.10;99.90
60860;DHT22;46694;54.382;9.708;2023-01-28T09:02:52;1.10;99.90
60860;DHT22;46694;54.382;9.708;2023-01-28T09:05:33;1.20;99.90
60860;DHT22;46694;54.382;9.708;2023-01-28T09:08:14;1.20;99.90
60860;DHT22;46694;54.382;9.708;2023-01-28T09:10:57;1.10;99.90
60860;DHT22;46694;54.382;9.708;2023-01-28T09:13:36;1.10;99.90
60860;DHT22;46694;54.382;9.708;2023-01-28T09:16:16;1.10;99.90
60860;DHT22;46694;54.382;9.708;2023-01-28T09:18:56;1.10;99.90
60860;DHT22;46694;54.382;9.708;2023-01-28T09:21:38;1.20;99.90
60860;DHT22;46694;54.382;9.708;2023-01-28T09:24:18;1.20;99.90
60860;DHT22;46694;54.382;9.708;2023-01-28T09:26:57;1.20;99.90
60860;DHT22;46694;54.382;9.708;2023-01-28T09:29:37;1.30;99.90
60860;DHT22;46694;54.382;9.708;2023-01-28T09:32:17;1.20;99.90
60860;DHT22;46694;54.382;9.708;2023-01-28T09:34:56;1.20;99.90
60860;DHT22;46694;54.382;9.708;2023-01-28T09:37:36;1.10;99.90
60860;DHT22;46694;54.382;9.708;2023-01-28T09:40:30;1.10;99.90
60860;DHT22;46694;54.382;9.708;2023-01-28T09:46:34;1.20;99.90
60860;DHT22;46694;54.382;9.708;2023-01-28T09:49:20;1.10;99.90
60860;DHT22;46694;54.382;9.708;2023-01-28T09:52:11;1.10;99.90
60860;DHT22;46694;54.382;9.708;2023-01-28T09:55:43;1.20;99.90
60860;DHT22;46694;54.382;9.708;2023-01-28T09:58:16;1.30;99.90
60860;DHT22;46694;54.382;9.708;2023-01-28T10:04:28;1.40;99.90
60860;DHT22;46694;54.382;9.708;2023-01-28T10:07:35;1.40;99.90
60860;DHT22;46694;54.382;9.708;2023-01-28T10:10:55;1.40;99.90
60860;DHT22;46694;54.382;9.708;2023-01-28T10:14:47;1.40;99.90
60860;DHT22;46694;54.382;9.708;2023-01-28T10:20:34;1.60;99.90
60860;DHT22;46694;54.382;9.708;2023-01-28T10:23:27;1.70;99.90
60860;DHT22;46694;54.382;9.708;2023-01-28T10:26:26;1.70;99.90
60860;DHT22;46694;54.382;9.708;2023-01-28T10:29:18;1.70;99.90
60860;DHT22;46694;54.382;9.708;2023-01-28T10:32:06;1.80;99.90
60860;DHT22;46694;54.382;9.708;2023-01-28T10:34:52;2.00;99.90
60860;DHT22;46694;54.382;9.708;2023-01-28T10:37:36;2.00;99.90
60860;DHT22;46694;54.382;9.708;2023-01-28T10:40:17;2.10;99.90
60860;DHT22;46694;54.382;9.708;2023-01-28T10:42:57;2.10;99.90
60860;DHT22;46694;54.382;9.708;2023-01-28T10:45:53;2.20;99.90
60860;DHT22;46694;54.382;9.708;2023-01-28T10:48:41;2.20;99.90
60860;DHT22;46694;54.382;9.708;2023-01-28T10:51:38;2.20;99.90
60860;DHT22;46694;54.382;9.708;2023-01-28T10:54:26;2.20;99.90
60860;DHT22;46694;54.382;9.708;2023-01-28T10:57:10;2.10;99.90
60860;DHT22;46694;54.382;9.708;2023-01-28T10:59:52;2.10;99.90
60860;DHT22;46694;54.382;9.708;2023-01-28T11:02:33;2.20;99.90
60860;DHT22;46694;54.382;9.708;2023-01-28T11:05:26;2.30;99.90
60860;DHT22;46694;54.382;9.708;2023-01-28T11:08:18;2.30;99.90
60860;DHT22;46694;54.382;9.708;2023-01-28T11:10:58;2.40;99.90
60860;DHT22;46694;54.382;9.708;2023-01-28T11:13:48;2.40;99.90
60860;DHT22;46694;54.382;9.708;2023-01-28T11:16:29;2.40;99.90
60860;DHT22;46694;54.382;9.708;2023-01-28T11:19:10;2.40;99.90
60860;DHT22;46694;54.382;9.708;2023-01-28T11:21:53;2.40;99.90
60860;DHT22;46694;54.382;9.708;2023-01-28T11:24:34;2.50;99.90
60860;DHT22;46694;54.382;9.708;2023-01-28T11:27:16;2.50;99.90
60860;DHT22;46694;54.382;9.708;2023-01-28T11:29:59;2.50;99.90
60860;DHT22;46694;54.382;9.708;2023-01-28T11:32:41;2.50;99.90
60860;DHT22;46694;54.382;9.708;2023-01-28T11:35:26;2.50;99.90
60860;DHT22;46694;54.382;9.708;2023-01-28T11:38:20;2.50;99.90
60860;DHT22;46694;54.382;9.708;2023-01-28T11:41:01;2.50;99.90
60860;DHT22;46694;54.382;9.708;2023-01-28T11:43:40;2.50;99.90
60860;DHT22;46694;54.382;9.708;2023-01-28T11:46:39;2.40;99.90
60860;DHT22;46694;54.382;9.708;2023-01-28T11:56:26;2.70;99.90
60860;DHT22;46694;54.382;9.708;2023-01-28T12:08:38;3.10;99.90
60860;DHT22;46694;54.382;9.708;2023-01-28T12:11:33;3.00;99.90
60860;DHT22;46694;54.382;9.708;2023-01-28T12:20:59;2.90;99.90
60860;DHT22;46694;54.382;9.708;2023-01-28T12:29:59;2.90;99.90
60860;DHT22;46694;54.382;9.708;2023-01-28T12:33:10;2.90;99.90
60860;DHT22;46694;54.382;9.708;2023-01-28T12:42:06;3.00;99.90
60860;DHT22;46694;54.382;9.708;2023-01-28T12:44:55;3.00;99.90
60860;DHT22;46694;54.382;9.708;2023-01-28T12:47:41;3.00;99.90
60860;DHT22;46694;54.382;9.708;2023-01-28T12:50:28;3.00;99.90
60860;DHT22;46694;54.382;9.708;2023-01-28T12:53:19;3.10;99.90
60860;DHT22;46694;54.382;9.708;2023-01-28T12:56:17;3.10;99.90
60860;DHT22;46694;54.382;9.708;2023-01-28T12:59:23;3.10;99.90
60860;DHT22;46694;54.382;9.708;2023-01-28T13:04:59;3.20;99.90
60860;DHT22;46694;54.382;9.708;2023-01-28T13:07:48;3.20;99.90
60860;DHT22;46694;54.382;9.708;2023-01-28T13:10:43;3.20;99.90
60860;DHT22;46694;54.382;9.708;2023-01-28T13:13:31;3.30;99.90
60860;DHT22;46694;54.382;9.708;2023-01-28T13:16:12;3.30;99.90
60860;DHT22;46694;54.382;9.708;2023-01-28T13:18:52;3.30;99.90
60860;DHT22;46694;54.382;9.708;2023-01-28T13:21:33;3.40;99.90
60860;DHT22;46694;54.382;9.708;2023-01-28T13:26:55;3.40;99.90
60860;DHT22;46694;54.382;9.708;2023-01-28T13:29:34;3.40;99.90
60860;DHT22;46694;54.382;9.708;2023-01-28T13:32:28;3.40;99.90
60860;DHT22;46694;54.382;9.708;2023-01-28T13:35:32;3.30;99.90
60860;DHT22;46694;54.382;9.708;2023-01-28T13:38:18;3.30;99.90
60860;DHT22;46694;54.382;9.708;2023-01-28T13:40:59;3.30;99.90
60860;DHT22;46694;54.382;9.708;2023-01-28T13:43:41;3.30;99.90
60860;DHT22;46694;54.382;9.708;2023-01-28T13:46:28;3.30;99.90
60860;DHT22;46694;54.382;9.708;2023-01-28T13:49:17;3.30;99.90
60860;DHT22;46694;54.382;9.708;2023-01-28T13:55:02;3.20;99.90
60860;DHT22;46694;54.382;9.708;2023-01-28T14:01:18;3.10;99.90
60860;DHT22;46694;54.382;9.708;2023-01-28T14:20:20;3.30;99.90
60860;DHT22;46694;54.382;9.708;2023-01-28T14:23:12;3.40;99.90
60860;DHT22;46694;54.382;9.708;2023-01-28T14:30:14;3.40;99.90
60860;DHT22;46694;54.382;9.708;2023-01-28T14:32:57;3.50;99.90
60860;DHT22;46694;54.382;9.708;2023-01-28T14:35:43;3.40;99.90
60860;DHT22;46694;54.382;9.708;2023-01-28T14:38:24;3.40;99.90
60860;DHT22;46694;54.382;9.708;2023-01-28T14:41:04;3.40;99.90
60860;DHT22;46694;54.382;9.708;2023-01-28T14:43:44;3.30;99.90
60860;DHT22;46694;54.382;9.708;2023-01-28T14:46:34;3.30;99.90
60860;DHT22;46694;54.382;9.708;2023-01-28T14:49:52;3.20;99.90
60860;DHT22;46694;54.382;9.708;2023-01-28T14:58:39;3.30;99.90
60860;DHT22;46694;54.382;9.708;2023-01-28T15:01:29;3.30;99.90
60860;DHT22;46694;54.382;9.708;2023-01-28T15:04:30;3.30;99.90
60860;DHT22;46694;54.382;9.708;2023-01-28T15:07:23;3.30;99.90
60860;DHT22;46694;54.382;9.708;2023-01-28T15:10:29;3.40;99.90
60860;DHT22;46694;54.382;9.708;2023-01-28T15:13:14;3.40;99.90
60860;DHT22;46694;54.382;9.708;2023-01-28T15:16:19;3.40;99.90
60860;DHT22;46694;54.382;9.708;2023-01-28T15:19:01;3.40;99.90
60860;DHT22;46694;54.382;9.708;2023-01-28T15:21:43;3.40;99.90
60860;DHT22;46694;54.382;9.708;2023-01-28T15:24:24;3.50;99.90
60860;DHT22;46694;54.382;9.708;2023-01-28T15:27:04;3.50;99.90
60860;DHT22;46694;54.382;9.708;2023-01-28T15:29:51;3.50;99.90
60860;DHT22;46694;54.382;9.708;2023-01-28T15:32:32;3.40;99.90
60860;DHT22;46694;54.382;9.708;2023-01-28T15:35:12;3.40;99.90
60860;DHT22;46694;54.382;9.708;2023-01-28T15:37:52;3.40;99.90
60860;DHT22;46694;54.382;9.708;2023-01-28T15:40:41;3.30;99.90
60860;DHT22;46694;54.382;9.708;2023-01-28T15:43:36;3.40;99.90
60860;DHT22;46694;54.382;9.708;2023-01-28T15:46:16;3.30;99.90
60860;DHT22;46694;54.382;9.708;2023-01-28T15:49:03;3.30;99.90
60860;DHT22;46694;54.382;9.708;2023-01-28T15:51:48;3.30;99.90
60860;DHT22;46694;54.382;9.708;2023-01-28T15:54:31;3.30;99.90
60860;DHT22;46694;54.382;9.708;2023-01-28T15:57:46;3.30;99.90
60860;DHT22;46694;54.382;9.708;2023-01-28T16:00:25;3.20;99.90
60860;DHT22;46694;54.382;9.708;2023-01-28T16:03:08;3.20;99.90
60860;DHT22;46694;54.382;9.708;2023-01-28T16:06:00;3.10;99.90
60860;DHT22;46694;54.382;9.708;2023-01-28T16:08:55;3.10;99.90
60860;DHT22;46694;54.382;9.708;2023-01-28T16:11:39;3.10;99.90
60860;DHT22;46694;54.382;9.708;2023-01-28T16:17:18;3.30;99.90
60860;DHT22;46694;54.382;9.708;2023-01-28T16:20:13;3.30;99.90
60860;DHT22;46694;54.382;9.708;2023-01-28T16:23:02;3.20;99.90
60860;DHT22;46694;54.382;9.708;2023-01-28T16:25:42;3.20;99.90
60860;DHT22;46694;54.382;9.708;2023-01-28T16:28:21;3.30;99.90
60860;DHT22;46694;54.382;9.708;2023-01-28T16:31:01;3.30;99.90
60860;DHT22;46694;54.382;9.708;2023-01-28T16:33:40;3.30;99.90
60860;DHT22;46694;54.382;9.708;2023-01-28T16:36:20;3.30;99.90
60860;DHT22;46694;54.382;9.708;2023-01-28T16:39:00;3.30;99.90
60860;DHT22;46694;54.382;9.708;2023-01-28T16:41:45;3.30;99.90
60860;DHT22;46694;54.382;9.708;2023-01-28T16:44:25;3.30;99.90
60860;DHT22;46694;54.382;9.708;2023-01-28T16:47:05;3.40;99.90
60860;DHT22;46694;54.382;9.708;2023-01-28T16:49:45;3.40;99.90
60860;DHT22;46694;54.382;9.708;2023-01-28T16:52:24;3.40;99.90
60860;DHT22;46694;54.382;9.708;2023-01-28T16:55:04;3.40;99.90
60860;DHT22;46694;54.382;9.708;2023-01-28T16:57:45;3.40;99.90
60860;DHT22;46694;54.382;9.708;2023-01-28T17:00:27;3.40;99.90
60860;DHT22;46694;54.382;9.708;2023-01-28T17:03:08;3.30;99.90
60860;DHT22;46694;54.382;9.708;2023-01-28T17:05:50;3.30;99.90
60860;DHT22;46694;54.382;9.708;2023-01-28T17:08:30;3.40;99.90
60860;DHT22;46694;54.382;9.708;2023-01-28T17:11:09;3.40;99.90
60860;DHT22;46694;54.382;9.708;2023-01-28T17:13:49;3.40;99.90
60860;DHT22;46694;54.382;9.708;2023-01-28T17:16:29;3.40;99.90
60860;DHT22;46694;54.382;9.708;2023-01-28T17:19:08;3.40;99.90
60860;DHT22;46694;54.382;9.708;2023-01-28T17:21:48;3.40;99.90
60860;DHT22;46694;54.382;9.708;2023-01-28T17:24:28;3.40;99.90
60860;DHT22;46694;54.382;9.708;2023-01-28T17:27:08;3.40;99.90
60860;DHT22;46694;54.382;9.708;2023-01-28T17:29:47;3.40;99.90
60860;DHT22;46694;54.382;9.708;2023-01-28T17:32:27;3.40;99.90
60860;DHT22;46694;54.382;9.708;2023-01-28T17:35:07;3.40;99.90
60860;DHT22;46694;54.382;9.708;2023-01-28T17:37:47;3.50;99.90
60860;DHT22;46694;54.382;9.708;2023-01-28T17:40:26;3.50;99.90
60860;DHT22;46694;54.382;9.708;2023-01-28T17:43:06;3.50;99.90
60860;DHT22;46694;54.382;9.708;2023-01-28T17:45:46;3.50;99.90
60860;DHT22;46694;54.382;9.708;2023-01-28T17:48:26;3.50;99.90
60860;DHT22;46694;54.382;9.708;2023-01-28T17:51:07;3.50;99.90
60860;DHT22;46694;54.382;9.708;2023-01-28T17:53:48;3.50;99.90
60860;DHT22;46694;54.382;9.708;2023-01-28T17:56:29;3.60;99.90
60860;DHT22;46694;54.382;9.708;2023-01-28T17:59:09;3.60;99.90
60860;DHT22;46694;54.382;9.708;2023-01-28T18:01:49;3.60;99.90
60860;DHT22;46694;54.382;9.708;2023-01-28T18:04:37;3.60;99.90
60860;DHT22;46694;54.382;9.708;2023-01-28T18:07:17;3.60;99.90
60860;DHT22;46694;54.382;9.708;2023-01-28T18:09:57;3.60;99.90
60860;DHT22;46694;54.382;9.708;2023-01-28T18:12:36;3.60;99.90
60860;DHT22;46694;54.382;9.708;2023-01-28T18:15:16;3.60;99.90
60860;DHT22;46694;54.382;9.708;2023-01-28T18:17:56;3.70;99.90
60860;DHT22;46694;54.382;9.708;2023-01-28T18:20:35;3.70;99.90
60860;DHT22;46694;54.382;9.708;2023-01-28T18:23:15;3.70;99.90
60860;DHT22;46694;54.382;9.708;2023-01-28T18:26:00;3.60;99.90
60860;DHT22;46694;54.382;9.708;2023-01-28T18:28:40;3.70;99.90
60860;DHT22;46694;54.382;9.708;2023-01-28T18:31:20;3.70;99.90
60860;DHT22;46694;54.382;9.708;2023-01-28T18:33:59;3.70;99.90
60860;DHT22;46694;54.382;9.708;2023-01-28T18:36:41;3.70;99.90
60860;DHT22;46694;54.382;9.708;2023-01-28T18:39:20;3.70;99.90
60860;DHT22;46694;54.382;9.708;2023-01-28T18:42:00;3.70;99.90
60860;DHT22;46694;54.382;9.708;2023-01-28T18:44:40;3.70;99.90
60860;DHT22;46694;54.382;9.708;2023-01-28T18:47:20;3.80;99.90
60860;DHT22;46694;54.382;9.708;2023-01-28T18:50:00;3.80;99.90
60860;DHT22;46694;54.382;9.708;2023-01-28T18:52:39;3.80;99.90
60860;DHT22;46694;54.382;9.708;2023-01-28T18:55:19;3.80;99.90
60860;DHT22;46694;54.382;9.708;2023-01-28T18:57:59;3.80;99.90
60860;DHT22;46694;54.382;9.708;2023-01-28T19:00:39;3.80;99.90
60860;DHT22;46694;54.382;9.708;2023-01-28T19:03:18;3.80;99.90
60860;DHT22;46694;54.382;9.708;2023-01-28T19:06:11;3.80;99.90
60860;DHT22;46694;54.382;9.708;2023-01-28T19:08:56;3.80;99.90
60860;DHT22;46694;54.382;9.708;2023-01-28T19:11:39;3.80;99.90
60860;DHT22;46694;54.382;9.708;2023-01-28T19:14:26;3.80;99.90
60860;DHT22;46694;54.382;9.708;2023-01-28T19:17:05;3.80;99.90
60860;DHT22;46694;54.382;9.708;2023-01-28T19:19:45;3.90;99.90
60860;DHT22;46694;54.382;9.708;2023-01-28T19:22:24;3.90;99.90